Last 30 Days

O'Neill Sea Odyssey

Daily Data | America/Los_Angeles
as of 12/4/20 10:27 PM PST
Date Daily Max Temp (°F) Time of Max Temp Daily Min Temp (°F) Time of Min Temp Daily Rain (In) Seasonal Rainfall (In) Wind Spd (mph) Daily Max Wind (mph) Time of Max Wind Max Wind Dir (°) Dew Pt (°F) Max RH (%) Min RH (%) Bat Volt Min Day (V)
12/3/20 55.0 1236 41.7 0518 0.00 0.79 3.8 13.3 1325 SW | 235 41.4 89 61 13.3
12/2/20 58.5 1536 38.3 0717 0.00 0.79 4.1 12.8 1125 SW | 229 41.1 90 58 13.3
12/1/20 62.6 1646 37.1 0651 0.00 0.79 3.7 10.1 1332 SW | 234 39.1 86 44 13.2
11/30/20 61.0 1555 37.0 0557 0.00 0.79 4.1 11.8 1320 SW | 233 38.9 89 43 13.2
11/29/20 62.8 1508 35.9 0723 0.00 0.79 4.2 14.3 1529 WSW | 252 37.3 86 35 13.2
11/28/20 59.9 1538 35.8 0714 0.00 0.79 3.9 10.5 1259 SW | 234 35.6 81 46 13.2
11/27/20 62.1 1506 35.5 0621 0.00 0.79 4.0 10.7 0204 N | 354 31.7 75 23 13.2
11/26/20 63.2 1524 39.7 0540 0.00 0.79 5.7 25.7 1120 NNE | 20 30.8 86 20 13.2
11/25/20 62.3 1451 40.0 0425 0.00 0.79 5.6 17.5 1914 N | 350 41.9 96 39 13.2
11/24/20 54.0 1527 39.7 0658 0.00 0.79 4.0 14.7 1324 SW | 226 44.6 96 82 13.3
11/23/20 57.2 1431 43.0 0044 0.00 0.79 3.5 10.1 1401 SW | 231 44.5 91 72 13.2
11/22/20 59.1 1509 36.1 0711 0.00 0.79 4.0 14.3 1214 SW | 228 38.4 100 45 13.2
11/21/20 63.1 1633 37.8 0609 0.00 0.79 4.0 8.8 1339 W | 264 35.7 81 28 13.2
11/20/20 59.8 1448 44.2 2300 0.00 0.79 3.3 11.4 1327 SW | 231 40.1 80 37 13.2
11/19/20 62.1 1625 44.1 0651 0.00 0.79 4.4 14.7 1642 NNE | 12 45.2 95 41 13.2
11/18/20 57.4 1242 49.9 2327 0.19 0.79 6.4 21.3 0521 S | 187 53.6 96 93 13.3
11/17/20 62.0 0147 51.6 0000 0.24 0.60 12.3 37.1 1101 SSW | 200 50.5 95 46 12.4
11/16/20 76.0 1543 45.1 0624 0.00 0.36 3.9 11.2 0006 N | 349 43.3 87 24 13.1
11/15/20 59.7 1721 40.7 0706 0.00 0.36 3.8 11.0 2351 N | 351 43.2 90 55 13.2
11/14/20 61.8 1638 45.0 0618 0.00 0.36 3.8 11.2 1328 SW | 224 47.1 97 52 13.2
11/13/20 54.6 1621 41.2 0644 0.25 0.36 3.6 10.8 0233 N | 355 45.4 97 76 13.3
11/12/20 60.2 1502 43.4 2346 0.00 0.11 4.8 17.3 1408 WSW | 240 44.0 88 53 13.2
11/11/20 59.2 1504 41.8 0644 0.00 0.11 2.8 10.8 1305 SW | 231 43.2 83 64 13.3
11/10/20 53.6 1719 36.6 0648 0.00 0.11 4.0 14.8 1436 SW | 226 36.8 82 49 13.3
11/9/20 54.9 1624 33.6 0623 0.00 0.11 5.0 18.1 1509 WSW | 257 32.7 83 41 13.3
11/8/20 56.8 1110 38.4 2351 0.00 0.11 7.0 28.8 1052 W | 279 35.7 84 38 13.3
11/7/20 59.8 1321 44.6 0531 0.03 0.11 6.2 24.0 1555 W | 266 43.5 93 48 13.2
11/6/20 62.0 1300 48.1 2355 0.02 0.08 7.7 28.9 1518 W | 263 44.0 95 32 13.2
11/5/20 74.0 1249 50.0 0628 0.00 0.06 3.4 12.4 1259 SW | 219 52.6 94 42 13.1
11/4/20 67.3 1631 43.9 0643 0.00 0.06 3.9 12.6 1203 SW | 223 47.9 89 51 13.2
Max 76.0 - 51.6 - 0.25 - 12.3 37.1 - - 53.6 100 93 13.3
Avg - - - - - - 4.7 - - - 41.7 - - -
Min 53.6 - 33.6 - 0.00 - 2.8 8.8 - - 30.8 75 20 12.4